createdAt,value
2017-07-26T00:02:01.639Z,98.30
2017-07-26T00:04:29.064Z,98.70
2017-07-26T00:06:56.488Z,98.90
2017-07-26T00:09:23.939Z,98.80
2017-07-26T00:11:52.153Z,98.90
2017-07-26T00:14:19.605Z,98.90
2017-07-26T00:16:47.033Z,99.10
2017-07-26T00:19:14.466Z,99.00
2017-07-26T00:21:42.660Z,99.10
2017-07-26T00:24:10.086Z,99.10
2017-07-26T00:26:38.289Z,99.30
2017-07-26T00:29:05.721Z,99.40
2017-07-26T00:31:33.992Z,99.40
2017-07-26T00:34:02.238Z,99.70
2017-07-26T00:36:29.650Z,99.60
2017-07-26T00:38:57.072Z,99.70
2017-07-26T00:41:24.500Z,99.90
2017-07-26T00:43:51.925Z,99.90
2017-07-26T00:46:19.368Z,99.90
2017-07-26T00:48:46.806Z,99.90
2017-07-26T00:51:14.225Z,99.90
2017-07-26T00:56:24.760Z,99.90
2017-07-26T00:58:52.200Z,99.90
2017-07-26T01:01:20.389Z,99.90
2017-07-26T01:03:47.822Z,99.90
2017-07-26T01:06:15.241Z,99.90
2017-07-26T01:08:42.669Z,99.90
2017-07-26T01:11:10.093Z,99.90
2017-07-26T01:13:38.382Z,99.90
2017-07-26T01:18:39.313Z,99.90
2017-07-26T01:21:06.749Z,99.90
2017-07-26T01:23:34.205Z,99.90
2017-07-26T01:26:01.605Z,99.90
2017-07-26T01:28:29.037Z,99.90
2017-07-26T01:30:57.232Z,99.90
2017-07-26T01:33:24.663Z,99.90
2017-07-26T01:35:52.096Z,99.90
2017-07-26T01:38:19.525Z,99.90
2017-07-26T01:40:46.993Z,99.90
2017-07-26T01:43:14.408Z,99.90
2017-07-26T01:45:41.842Z,99.90
2017-07-26T01:48:09.264Z,99.90
2017-07-26T01:50:36.684Z,99.90
2017-07-26T01:53:04.235Z,99.90
2017-07-26T01:55:31.665Z,99.90
2017-07-26T01:57:59.093Z,99.90
2017-07-26T02:00:26.538Z,99.90
2017-07-26T02:02:53.972Z,99.90
2017-07-26T02:05:21.456Z,99.90
2017-07-26T02:07:48.864Z,99.90
2017-07-26T02:10:17.069Z,99.90
2017-07-26T02:12:44.509Z,99.90
2017-07-26T02:15:11.926Z,99.90
2017-07-26T02:17:39.355Z,99.90
2017-07-26T02:20:06.787Z,99.90
2017-07-26T02:22:34.216Z,99.90
2017-07-26T02:25:02.413Z,99.90
2017-07-26T02:27:29.842Z,99.90
2017-07-26T02:29:58.038Z,99.90
2017-07-26T02:32:25.460Z,99.90
2017-07-26T02:34:53.683Z,99.90
2017-07-26T02:37:21.110Z,99.90
2017-07-26T02:39:48.542Z,99.90
2017-07-26T02:42:15.977Z,99.90
2017-07-26T02:44:43.410Z,99.90
2017-07-26T02:47:10.842Z,99.90
2017-07-26T02:49:38.266Z,99.90
2017-07-26T02:52:06.471Z,99.90
2017-07-26T02:54:33.905Z,99.90
2017-07-26T02:57:02.099Z,99.90
2017-07-26T02:59:29.521Z,99.90
2017-07-26T03:01:56.961Z,99.90
2017-07-26T03:04:24.396Z,99.90
2017-07-26T03:06:51.829Z,99.90
2017-07-26T03:09:19.299Z,99.90
2017-07-26T03:11:46.734Z,99.90
2017-07-26T03:14:14.936Z,99.90
2017-07-26T03:16:42.372Z,99.90
2017-07-26T03:19:09.825Z,99.90
2017-07-26T03:21:37.252Z,99.90
2017-07-26T03:24:05.441Z,99.90
2017-07-26T03:26:32.888Z,99.90
2017-07-26T03:29:01.095Z,99.90
2017-07-26T03:31:28.541Z,99.90
2017-07-26T03:33:55.964Z,99.90
2017-07-26T03:36:24.172Z,99.90
2017-07-26T03:38:51.596Z,99.90
2017-07-26T03:41:19.784Z,99.90
2017-07-26T03:43:47.229Z,99.90
2017-07-26T03:46:15.437Z,99.90
2017-07-26T03:48:42.865Z,99.90
2017-07-26T03:51:11.046Z,99.90
2017-07-26T03:53:38.486Z,99.90
2017-07-26T03:56:06.668Z,99.90
2017-07-26T03:58:34.875Z,99.90
2017-07-26T04:01:02.317Z,99.90
2017-07-26T04:03:29.758Z,99.90
2017-07-26T04:05:57.948Z,99.90
2017-07-26T04:08:25.389Z,99.90
2017-07-26T04:10:52.817Z,99.90
2017-07-26T04:13:20.261Z,99.90
2017-07-26T04:15:47.682Z,99.90
2017-07-26T04:18:15.101Z,99.90
2017-07-26T04:20:43.305Z,99.90
2017-07-26T04:23:10.723Z,99.90
2017-07-26T04:25:38.928Z,99.90
2017-07-26T04:28:06.356Z,99.90
2017-07-26T04:30:33.775Z,99.90
2017-07-26T04:33:01.205Z,99.90
2017-07-26T04:35:28.645Z,99.90
2017-07-26T04:37:56.073Z,99.90
2017-07-26T04:40:24.277Z,99.90
2017-07-26T04:42:51.716Z,99.90
2017-07-26T04:45:19.132Z,99.90
2017-07-26T04:47:46.565Z,99.90
2017-07-26T04:50:14.000Z,99.90
2017-07-26T04:52:41.421Z,99.90
2017-07-26T04:55:08.937Z,99.90
2017-07-26T04:57:36.468Z,99.90
2017-07-26T05:00:03.898Z,99.90
2017-07-26T05:02:32.121Z,99.90
2017-07-26T05:04:59.570Z,99.90
2017-07-26T05:07:26.998Z,99.90
2017-07-26T05:09:54.449Z,99.90
2017-07-26T05:12:21.884Z,99.90
2017-07-26T05:14:49.317Z,99.90
2017-07-26T05:17:16.751Z,99.90
2017-07-26T05:19:44.181Z,99.90
2017-07-26T05:22:11.620Z,99.90
2017-07-26T05:24:39.832Z,99.80
2017-07-26T05:27:07.253Z,99.80
2017-07-26T05:29:35.493Z,99.90
2017-07-26T05:32:02.911Z,99.90
2017-07-26T05:34:30.344Z,99.90
2017-07-26T05:36:57.788Z,99.90
2017-07-26T05:39:25.976Z,99.90
2017-07-26T05:41:53.477Z,99.90
2017-07-26T05:44:20.900Z,99.70
2017-07-26T05:46:48.336Z,99.20
2017-07-26T05:49:15.752Z,99.30
2017-07-26T05:51:43.185Z,99.60
2017-07-26T05:54:10.614Z,99.00
2017-07-26T05:56:38.028Z,99.50
2017-07-26T05:59:05.464Z,99.90
2017-07-26T06:01:32.889Z,99.90
2017-07-26T06:04:00.325Z,99.90
2017-07-26T06:06:28.524Z,99.90
2017-07-26T06:08:56.197Z,99.90
2017-07-26T06:11:23.621Z,99.90
2017-07-26T06:13:51.078Z,99.90
2017-07-26T06:16:18.517Z,99.90
2017-07-26T06:18:45.932Z,99.80
2017-07-26T06:21:13.367Z,99.90
2017-07-26T06:23:40.797Z,99.90
2017-07-26T06:26:09.116Z,99.70
2017-07-26T06:28:36.530Z,99.70
2017-07-26T06:31:04.724Z,99.30
2017-07-26T06:33:32.205Z,99.30
2017-07-26T06:35:59.645Z,99.30
2017-07-26T06:38:27.212Z,99.40
2017-07-26T06:40:54.992Z,99.40
2017-07-26T06:43:23.329Z,98.90
2017-07-26T06:45:51.501Z,98.60
2017-07-26T06:48:18.970Z,98.70
2017-07-26T06:50:46.421Z,98.70
2017-07-26T06:53:13.987Z,98.40
2017-07-26T06:55:41.391Z,97.90
2017-07-26T06:58:09.664Z,98.00
2017-07-26T07:00:37.266Z,98.00
2017-07-26T07:03:05.466Z,97.90
2017-07-26T07:05:32.905Z,97.90
2017-07-26T07:08:00.332Z,97.80
2017-07-26T07:10:28.553Z,97.60
2017-07-26T07:12:55.980Z,97.60
2017-07-26T07:15:23.412Z,97.60
2017-07-26T07:17:50.836Z,97.90
2017-07-26T07:20:18.320Z,97.70
2017-07-26T07:22:45.741Z,97.80
2017-07-26T07:25:13.170Z,97.70
2017-07-26T07:27:40.633Z,98.10
2017-07-26T07:30:08.074Z,98.00
2017-07-26T07:32:35.545Z,98.00
2017-07-26T07:35:03.002Z,97.70
2017-07-26T07:37:30.465Z,97.70
2017-07-26T07:39:57.873Z,97.90
2017-07-26T07:42:25.308Z,98.10
2017-07-26T07:44:53.513Z,98.60
2017-07-26T07:47:20.950Z,98.30
2017-07-26T07:49:49.168Z,98.40
2017-07-26T07:52:16.573Z,98.40
2017-07-26T07:54:44.772Z,98.80
2017-07-26T07:57:12.195Z,98.80
2017-07-26T07:59:40.385Z,99.10
2017-07-26T08:02:07.886Z,98.80
2017-07-26T08:04:35.321Z,98.70
2017-07-26T08:07:02.744Z,98.90
2017-07-26T08:09:30.972Z,98.70
2017-07-26T08:11:58.377Z,98.60
2017-07-26T08:14:25.801Z,98.80
2017-07-26T08:16:53.233Z,98.70
2017-07-26T08:19:20.671Z,98.60
2017-07-26T08:21:48.110Z,98.50
2017-07-26T08:24:15.541Z,98.20
2017-07-26T08:26:42.959Z,97.80
2017-07-26T08:29:10.423Z,97.70
2017-07-26T08:31:37.851Z,97.50
2017-07-26T08:34:05.309Z,97.40
2017-07-26T08:36:32.749Z,97.00
2017-07-26T08:39:00.941Z,97.10
2017-07-26T08:41:28.429Z,97.10
2017-07-26T08:43:55.868Z,97.40
2017-07-26T08:46:23.294Z,97.10
2017-07-26T08:48:50.721Z,97.10
2017-07-26T08:51:18.922Z,97.30
2017-07-26T08:53:46.347Z,97.30
2017-07-26T08:56:13.787Z,97.20
2017-07-26T08:58:41.239Z,97.00
2017-07-26T09:01:08.661Z,96.80
2017-07-26T09:03:36.112Z,96.90
2017-07-26T09:06:03.532Z,96.70
2017-07-26T09:08:30.953Z,97.00
2017-07-26T09:10:59.144Z,96.80
2017-07-26T09:13:26.576Z,96.80
2017-07-26T09:15:54.797Z,96.70
2017-07-26T09:18:22.229Z,96.70
2017-07-26T09:20:50.413Z,96.50
2017-07-26T09:23:18.124Z,96.50
2017-07-26T09:25:45.705Z,96.50
2017-07-26T09:28:13.120Z,96.00
2017-07-26T09:30:41.550Z,95.70
2017-07-26T09:33:09.853Z,95.40
2017-07-26T09:35:38.928Z,95.40
2017-07-26T09:38:07.264Z,95.20
2017-07-26T09:40:34.713Z,95.20
2017-07-26T09:43:02.154Z,95.20
2017-07-26T09:45:29.637Z,95.30
2017-07-26T09:47:57.070Z,95.30
2017-07-26T09:50:24.508Z,95.40
2017-07-26T09:52:51.941Z,94.90
2017-07-26T09:55:19.387Z,95.00
2017-07-26T09:57:47.614Z,95.20
2017-07-26T10:00:15.055Z,95.10
2017-07-26T10:02:42.514Z,95.10
2017-07-26T10:05:09.993Z,95.00
2017-07-26T10:07:37.429Z,94.80
2017-07-26T10:10:04.892Z,94.90
2017-07-26T10:12:32.336Z,95.00
2017-07-26T10:14:59.788Z,95.40
2017-07-26T10:17:27.205Z,95.10
2017-07-26T10:19:54.658Z,95.10
2017-07-26T10:22:22.108Z,95.00
2017-07-26T10:24:49.528Z,95.00
2017-07-26T10:27:16.964Z,94.80
2017-07-26T10:29:44.404Z,94.80
2017-07-26T10:32:11.837Z,94.30
2017-07-26T10:34:40.061Z,94.30
2017-07-26T10:37:07.464Z,94.20
2017-07-26T10:39:34.904Z,94.50
2017-07-26T10:42:02.356Z,94.50
2017-07-26T10:44:29.780Z,94.30
2017-07-26T10:46:57.213Z,94.40
2017-07-26T10:49:24.673Z,94.30
2017-07-26T10:51:52.105Z,94.00
2017-07-26T10:54:20.310Z,94.00
2017-07-26T10:56:47.765Z,94.00
2017-07-26T10:59:15.193Z,94.00
2017-07-26T11:01:42.626Z,93.60
2017-07-26T11:04:10.070Z,93.10
2017-07-26T11:06:37.512Z,92.60
2017-07-26T11:09:04.952Z,92.40
2017-07-26T11:11:32.384Z,92.20
2017-07-26T11:13:59.817Z,91.90
2017-07-26T11:16:28.008Z,91.60
2017-07-26T11:18:55.438Z,91.60
2017-07-26T11:21:23.649Z,90.80
2017-07-26T11:23:51.095Z,91.00
2017-07-26T11:26:18.534Z,90.50
2017-07-26T11:28:46.720Z,90.00
2017-07-26T11:31:14.140Z,89.40
2017-07-26T11:33:41.568Z,88.50
2017-07-26T11:36:09.027Z,87.70
2017-07-26T11:38:36.437Z,85.60
2017-07-26T11:41:04.638Z,83.60
2017-07-26T11:43:32.052Z,83.60
2017-07-26T11:46:00.256Z,81.50
2017-07-26T11:48:27.745Z,81.50
2017-07-26T11:50:55.171Z,81.50
2017-07-26T11:53:22.591Z,79.10
2017-07-26T11:55:50.826Z,77.90
2017-07-26T11:58:18.247Z,77.90
2017-07-26T12:00:46.427Z,76.20
2017-07-26T12:03:13.913Z,76.20
2017-07-26T12:05:41.378Z,75.40
2017-07-26T12:08:08.810Z,73.90
2017-07-26T12:10:36.252Z,74.70
2017-07-26T12:13:03.693Z,74.10
2017-07-26T12:15:31.920Z,71.00
2017-07-26T12:17:59.333Z,71.00
2017-07-26T12:20:26.827Z,70.20
2017-07-26T12:22:54.270Z,69.10
2017-07-26T12:25:21.704Z,69.00
2017-07-26T12:27:49.902Z,68.00
2017-07-26T12:30:17.356Z,68.00
2017-07-26T12:32:44.790Z,67.70
2017-07-26T12:35:12.294Z,68.10
2017-07-26T12:37:39.708Z,64.70
2017-07-26T12:40:07.134Z,60.20
2017-07-26T12:42:36.120Z,58.10
2017-07-26T12:45:03.550Z,58.20
2017-07-26T12:47:31.008Z,56.80
2017-07-26T12:49:58.417Z,57.20
2017-07-26T12:52:25.851Z,56.60
2017-07-26T12:54:54.085Z,57.20
2017-07-26T12:57:21.524Z,57.20
2017-07-26T12:59:48.974Z,56.00
2017-07-26T13:02:16.388Z,53.30
2017-07-26T13:04:44.581Z,49.10
2017-07-26T13:07:12.041Z,49.00
2017-07-26T13:09:39.473Z,45.10
2017-07-26T13:12:07.655Z,44.30
2017-07-26T13:14:35.853Z,42.30
2017-07-26T13:17:03.273Z,42.20
2017-07-26T13:19:31.468Z,39.70
2017-07-26T13:21:58.957Z,39.60
2017-07-26T13:24:26.426Z,39.90
2017-07-26T13:26:53.863Z,39.90
2017-07-26T13:29:21.284Z,40.20
2017-07-26T13:31:49.469Z,37.50
2017-07-26T13:34:16.958Z,37.60
2017-07-26T13:36:44.397Z,38.30
2017-07-26T13:39:11.821Z,36.30
2017-07-26T13:41:40.022Z,37.70
2017-07-26T13:44:07.444Z,37.70
2017-07-26T13:46:35.675Z,36.00
2017-07-26T13:49:03.096Z,35.80
2017-07-26T13:51:30.587Z,35.90
2017-07-26T13:53:58.029Z,36.60
2017-07-26T13:56:25.464Z,35.60
2017-07-26T13:58:52.886Z,37.20
2017-07-26T14:01:20.506Z,37.40
2017-07-26T14:03:47.988Z,37.90
2017-07-26T14:06:15.406Z,38.60
2017-07-26T14:08:42.908Z,40.80
2017-07-26T14:11:10.343Z,42.00
2017-07-26T14:13:37.756Z,43.20
2017-07-26T14:16:05.181Z,46.30
2017-07-26T14:18:32.617Z,48.70
2017-07-26T14:21:00.033Z,49.50
2017-07-26T14:23:27.464Z,51.50
2017-07-26T14:25:55.650Z,54.10
2017-07-26T14:28:23.090Z,54.00
2017-07-26T14:30:50.523Z,55.10
2017-07-26T14:33:17.962Z,56.30
2017-07-26T14:35:45.359Z,57.90
2017-07-26T14:38:13.565Z,59.10
2017-07-26T14:40:40.991Z,59.10
2017-07-26T14:43:09.173Z,59.90
2017-07-26T14:45:36.601Z,59.80
2017-07-26T14:48:04.024Z,59.80
2017-07-26T14:50:31.468Z,60.10
2017-07-26T14:52:58.956Z,59.10
2017-07-26T14:55:26.382Z,59.50
2017-07-26T14:57:53.792Z,59.80
2017-07-26T15:00:22.013Z,60.50
2017-07-26T15:02:49.431Z,60.40
2017-07-26T15:05:16.937Z,61.00
2017-07-26T15:07:44.412Z,61.50
2017-07-26T15:10:11.841Z,61.90
2017-07-26T15:12:39.275Z,61.70
2017-07-26T15:15:06.705Z,61.30
2017-07-26T15:17:34.889Z,61.30
2017-07-26T15:20:02.325Z,61.20
2017-07-26T15:22:29.749Z,61.60
2017-07-26T15:24:57.180Z,62.10
2017-07-26T15:27:24.601Z,62.40
2017-07-26T15:29:52.814Z,62.20
2017-07-26T15:32:20.217Z,62.20
2017-07-26T15:34:47.637Z,62.20
2017-07-26T15:37:15.065Z,62.20
2017-07-26T15:39:42.484Z,62.00
2017-07-26T15:42:10.679Z,62.10
2017-07-26T15:44:38.877Z,62.60
2017-07-26T15:47:06.301Z,62.60
2017-07-26T15:49:33.730Z,62.90
2017-07-26T15:52:01.220Z,63.50
2017-07-26T15:54:28.657Z,63.80
2017-07-26T15:56:56.133Z,63.80
2017-07-26T15:59:23.578Z,63.60
2017-07-26T16:01:51.023Z,63.30
2017-07-26T16:04:18.496Z,63.20
2017-07-26T16:06:45.938Z,63.80
2017-07-26T16:09:13.373Z,63.40
2017-07-26T16:11:41.603Z,62.20
2017-07-26T16:14:09.000Z,62.10
2017-07-26T16:16:37.191Z,62.80
2017-07-26T16:19:04.631Z,62.80
2017-07-26T16:21:32.821Z,61.40
2017-07-26T16:24:00.240Z,61.40
2017-07-26T16:26:27.670Z,61.70
2017-07-26T16:28:55.095Z,62.30
2017-07-26T16:31:22.513Z,62.10
2017-07-26T16:33:50.713Z,62.30
2017-07-26T16:36:18.124Z,62.20
2017-07-26T16:38:45.553Z,62.00
2017-07-26T16:41:12.976Z,62.50
2017-07-26T16:43:40.404Z,62.30
2017-07-26T16:46:07.830Z,62.20
2017-07-26T16:48:35.285Z,63.10
2017-07-26T16:51:02.712Z,62.30
2017-07-26T16:53:30.135Z,63.10
2017-07-26T16:55:58.333Z,62.30
2017-07-26T16:58:25.765Z,62.30
2017-07-26T17:00:53.961Z,62.30
2017-07-26T17:03:21.391Z,62.20
2017-07-26T17:05:48.825Z,63.20
2017-07-26T17:08:16.371Z,62.40
2017-07-26T17:10:43.827Z,62.50
2017-07-26T17:13:11.267Z,62.80
2017-07-26T17:15:38.725Z,62.90
2017-07-26T17:18:06.145Z,63.80
2017-07-26T17:20:34.377Z,63.30
2017-07-26T17:23:01.800Z,63.30
2017-07-26T17:25:31.161Z,63.20
2017-07-26T17:27:58.584Z,63.20
2017-07-26T17:30:26.034Z,63.20
2017-07-26T17:32:53.474Z,63.80
2017-07-26T17:35:20.911Z,63.80
2017-07-26T17:37:48.339Z,64.50
2017-07-26T17:40:16.525Z,65.10
2017-07-26T17:42:44.713Z,66.50
2017-07-26T17:45:12.129Z,66.50
2017-07-26T17:47:39.550Z,67.20
2017-07-26T17:50:06.980Z,67.80
2017-07-26T17:52:34.392Z,68.50
2017-07-26T17:55:01.840Z,68.00
2017-07-26T17:57:29.280Z,68.70
2017-07-26T17:59:56.753Z,68.80
2017-07-26T18:02:24.192Z,69.30
2017-07-26T18:04:51.752Z,69.40
2017-07-26T18:07:19.220Z,69.80
2017-07-26T18:09:46.759Z,69.30
2017-07-26T18:12:14.174Z,68.50
2017-07-26T18:14:42.409Z,67.60
2017-07-26T18:17:09.835Z,67.50
2017-07-26T18:19:37.283Z,66.90
2017-07-26T18:22:04.693Z,66.10
2017-07-26T18:24:32.126Z,65.10
2017-07-26T18:26:59.553Z,65.00
2017-07-26T18:29:26.980Z,64.40
2017-07-26T18:31:55.181Z,66.10
2017-07-26T18:34:22.639Z,66.10
2017-07-26T18:36:50.124Z,66.60
2017-07-26T18:39:17.667Z,66.60
2017-07-26T18:41:45.082Z,67.40
2017-07-26T18:44:13.299Z,68.50
2017-07-26T18:46:40.730Z,68.40
2017-07-26T18:49:08.162Z,69.50
2017-07-26T18:51:36.428Z,71.10
2017-07-26T18:54:03.858Z,71.00
2017-07-26T18:56:31.280Z,71.50
2017-07-26T18:58:58.705Z,72.20
2017-07-26T19:01:26.898Z,73.30
2017-07-26T19:03:54.326Z,73.20
2017-07-26T19:06:22.545Z,74.50
2017-07-26T19:08:49.970Z,74.50
2017-07-26T19:11:18.162Z,74.50
2017-07-26T19:13:45.589Z,74.50
2017-07-26T19:16:13.831Z,75.70
2017-07-26T19:18:41.289Z,75.70
2017-07-26T19:21:08.707Z,76.30
2017-07-26T19:23:36.202Z,76.50
2017-07-26T19:26:03.649Z,76.90
2017-07-26T19:28:31.073Z,77.10
2017-07-26T19:30:58.523Z,77.70
2017-07-26T19:33:25.945Z,77.40
2017-07-26T19:35:53.389Z,78.00
2017-07-26T19:38:20.829Z,78.40
2017-07-26T19:40:48.240Z,78.00
2017-07-26T19:43:15.677Z,78.10
2017-07-26T19:45:43.892Z,79.10
2017-07-26T19:48:11.482Z,79.00
2017-07-26T19:50:38.926Z,79.00
2017-07-26T19:53:06.381Z,79.50
2017-07-26T19:55:33.819Z,79.80
2017-07-26T19:58:01.232Z,79.50
2017-07-26T20:00:29.458Z,81.60
2017-07-26T20:02:56.958Z,81.50
2017-07-26T20:05:24.408Z,82.10
2017-07-26T20:07:51.897Z,81.90
2017-07-26T20:10:20.073Z,82.20
2017-07-26T20:12:47.510Z,82.10
2017-07-26T20:15:15.710Z,82.20
2017-07-26T20:17:43.138Z,82.10
2017-07-26T20:20:11.364Z,82.30
2017-07-26T20:22:38.874Z,82.30
2017-07-26T20:25:07.070Z,81.40
2017-07-26T20:27:35.287Z,82.30
2017-07-26T20:30:03.433Z,81.80
2017-07-26T20:32:30.852Z,81.80
2017-07-26T20:34:58.275Z,82.00
2017-07-26T20:37:25.723Z,82.10
2017-07-26T20:39:53.297Z,82.10
2017-07-26T20:42:20.711Z,82.70
2017-07-26T20:44:48.140Z,83.00
2017-07-26T20:47:16.339Z,82.70
2017-07-26T20:49:43.788Z,82.70
2017-07-26T20:52:11.216Z,82.70
2017-07-26T20:54:38.666Z,82.70
2017-07-26T20:57:06.091Z,82.80
2017-07-26T20:59:33.574Z,82.60
2017-07-26T21:02:01.014Z,82.50
2017-07-26T21:04:28.470Z,82.70
2017-07-26T21:06:55.947Z,82.60
2017-07-26T21:09:23.415Z,82.50
2017-07-26T21:11:50.830Z,82.70
2017-07-26T21:14:18.297Z,82.60
2017-07-26T21:16:45.829Z,82.10
2017-07-26T21:19:13.299Z,81.80
2017-07-26T21:21:40.740Z,82.30
2017-07-26T21:24:08.219Z,83.00
2017-07-26T21:26:35.677Z,84.90
2017-07-26T21:29:03.171Z,85.60
2017-07-26T21:31:30.588Z,86.30
2017-07-26T21:33:58.052Z,87.30
2017-07-26T21:36:25.532Z,88.10
2017-07-26T21:38:53.005Z,88.80
2017-07-26T21:41:21.229Z,89.90
2017-07-26T21:43:48.707Z,89.90
2017-07-26T21:46:16.142Z,88.90
2017-07-26T21:48:43.595Z,89.00
2017-07-26T21:51:11.003Z,87.90
2017-07-26T21:53:39.191Z,89.10
2017-07-26T21:56:06.637Z,88.90
2017-07-26T21:58:34.832Z,88.10
2017-07-26T22:01:02.249Z,88.10
2017-07-26T22:03:30.468Z,90.00
2017-07-26T22:05:57.929Z,90.00
2017-07-26T22:08:25.396Z,90.20
2017-07-26T22:10:52.847Z,90.80
2017-07-26T22:13:20.277Z,90.70
2017-07-26T22:15:47.709Z,90.10
2017-07-26T22:18:15.917Z,88.90
2017-07-26T22:20:43.337Z,88.90
2017-07-26T22:23:11.546Z,88.50
2017-07-26T22:25:38.966Z,88.40
2017-07-26T22:28:07.166Z,88.80
2017-07-26T22:30:34.574Z,88.80
2017-07-26T22:33:02.005Z,90.60
2017-07-26T22:35:29.433Z,90.90
2017-07-26T22:37:56.865Z,91.20
2017-07-26T22:40:25.079Z,91.90
2017-07-26T22:42:52.507Z,91.90
2017-07-26T22:45:19.929Z,92.50
2017-07-26T22:47:47.359Z,92.60
2017-07-26T22:50:14.792Z,92.40
2017-07-26T22:52:42.207Z,92.20
2017-07-26T22:57:37.440Z,92.10
2017-07-26T23:00:04.856Z,92.00
2017-07-26T23:02:32.292Z,92.10
2017-07-26T23:04:59.728Z,92.70
2017-07-26T23:07:27.193Z,92.90
2017-07-26T23:09:54.609Z,92.90
2017-07-26T23:12:22.826Z,93.10
2017-07-26T23:14:50.243Z,93.10
2017-07-26T23:17:17.664Z,93.50
2017-07-26T23:19:45.094Z,93.40
2017-07-26T23:22:12.517Z,92.90
2017-07-26T23:24:39.957Z,92.70
2017-07-26T23:27:08.154Z,92.50
2017-07-26T23:29:35.596Z,92.50
2017-07-26T23:32:03.029Z,92.40
2017-07-26T23:34:30.473Z,92.50
2017-07-26T23:36:57.913Z,92.50
2017-07-26T23:39:25.342Z,92.80
2017-07-26T23:41:52.769Z,93.00
2017-07-26T23:44:20.954Z,92.70
2017-07-26T23:46:49.156Z,92.90
2017-07-26T23:49:16.585Z,92.90
2017-07-26T23:51:44.803Z,93.40
2017-07-26T23:54:12.229Z,93.40
2017-07-26T23:56:39.655Z,93.40
2017-07-26T23:59:07.087Z,93.90
